sensor_id;sensor_type;location;lat;lon;timestamp;pressure;altitude;pressure_sealevel;temperature;humidity
13456;BME280;6800;50.940;6.940;2023-04-09T00:02:57;101744.19;;;18.62;43.27
13456;BME280;6800;50.940;6.940;2023-04-09T00:06:59;101743.78;;;18.56;43.35
13456;BME280;6800;50.940;6.940;2023-04-09T00:11:00;101737.50;;;18.46;43.28
13456;BME280;6800;50.940;6.940;2023-04-09T00:15:02;101743.53;;;18.35;43.41
13456;BME280;6800;50.940;6.940;2023-04-09T00:19:03;101737.66;;;18.43;43.00
13456;BME280;6800;50.940;6.940;2023-04-09T00:23:04;101739.94;;;18.36;42.96
13456;BME280;6800;50.940;6.940;2023-04-09T00:27:06;101736.19;;;18.51;42.54
13456;BME280;6800;50.940;6.940;2023-04-09T00:31:07;101734.22;;;18.42;43.03
13456;BME280;6800;50.940;6.940;2023-04-09T00:35:09;101734.28;;;18.41;42.91
13456;BME280;6800;50.940;6.940;2023-04-09T00:39:11;101737.34;;;18.24;42.60
13456;BME280;6800;50.940;6.940;2023-04-09T00:43:12;101737.38;;;18.47;41.75
13456;BME280;6800;50.940;6.940;2023-04-09T00:47:14;101735.72;;;18.34;42.39
13456;BME280;6800;50.940;6.940;2023-04-09T00:51:15;101733.88;;;18.11;42.68
13456;BME280;6800;50.940;6.940;2023-04-09T00:55:17;101734.50;;;18.14;42.61
13456;BME280;6800;50.940;6.940;2023-04-09T00:59:18;101728.34;;;18.14;42.65
13456;BME280;6800;50.940;6.940;2023-04-09T01:03:20;101736.41;;;18.12;42.51
13456;BME280;6800;50.940;6.940;2023-04-09T01:16:22;101722.63;;;18.20;42.27
13456;BME280;6800;50.940;6.940;2023-04-09T01:20:42;101724.25;;;18.10;42.14
13456;BME280;6800;50.940;6.940;2023-04-09T01:25:01;101718.56;;;18.03;42.44
13456;BME280;6800;50.940;6.940;2023-04-09T01:29:04;101721.63;;;17.97;42.72
13456;BME280;6800;50.940;6.940;2023-04-09T01:33:08;101722.81;;;17.80;42.85
13456;BME280;6800;50.940;6.940;2023-04-09T01:37:11;101723.56;;;17.82;42.50
13456;BME280;6800;50.940;6.940;2023-04-09T01:41:16;101723.13;;;17.88;42.81
13456;BME280;6800;50.940;6.940;2023-04-09T01:45:19;101728.63;;;17.73;43.22
13456;BME280;6800;50.940;6.940;2023-04-09T01:49:21;101730.66;;;17.57;43.28
13456;BME280;6800;50.940;6.940;2023-04-09T01:53:22;101724.41;;;17.83;42.93
13456;BME280;6800;50.940;6.940;2023-04-09T01:57:24;101730.47;;;17.60;43.57
13456;BME280;6800;50.940;6.940;2023-04-09T02:01:35;101722.97;;;17.66;43.29
13456;BME280;6800;50.940;6.940;2023-04-09T02:05:44;101723.69;;;17.81;42.84
13456;BME280;6800;50.940;6.940;2023-04-09T02:09:47;101720.50;;;17.88;42.62
13456;BME280;6800;50.940;6.940;2023-04-09T02:13:50;101721.53;;;17.86;42.34
13456;BME280;6800;50.940;6.940;2023-04-09T02:17:54;101729.72;;;17.58;42.73
13456;BME280;6800;50.940;6.940;2023-04-09T02:21:56;101714.25;;;17.89;42.07
13456;BME280;6800;50.940;6.940;2023-04-09T02:25:57;101716.28;;;17.61;42.91
13456;BME280;6800;50.940;6.940;2023-04-09T02:29:59;101708.78;;;17.80;42.16
13456;BME280;6800;50.940;6.940;2023-04-09T02:34:00;101707.50;;;17.73;42.44
13456;BME280;6800;50.940;6.940;2023-04-09T02:38:02;101717.34;;;17.58;42.83
13456;BME280;6800;50.940;6.940;2023-04-09T02:42:03;101711.75;;;17.63;42.75
13456;BME280;6800;50.940;6.940;2023-04-09T02:46:06;101705.25;;;17.92;42.18
13456;BME280;6800;50.940;6.940;2023-04-09T02:50:07;101703.72;;;17.77;42.55
13456;BME280;6800;50.940;6.940;2023-04-09T02:54:09;101711.31;;;17.69;42.60
13456;BME280;6800;50.940;6.940;2023-04-09T02:58:10;101707.41;;;17.87;42.32
13456;BME280;6800;50.940;6.940;2023-04-09T03:02:12;101710.03;;;17.87;41.97
13456;BME280;6800;50.940;6.940;2023-04-09T03:06:16;101691.16;;;17.68;41.81
13456;BME280;6800;50.940;6.940;2023-04-09T03:10:18;101694.66;;;17.68;41.77
13456;BME280;6800;50.940;6.940;2023-04-09T03:14:22;101695.34;;;17.33;41.87
13456;BME280;6800;50.940;6.940;2023-04-09T03:18:23;101692.94;;;17.42;42.09
13456;BME280;6800;50.940;6.940;2023-04-09T03:22:25;101691.66;;;17.35;42.35
13456;BME280;6800;50.940;6.940;2023-04-09T03:26:26;101681.31;;;17.45;42.09
13456;BME280;6800;50.940;6.940;2023-04-09T03:30:28;101685.75;;;17.44;41.84
13456;BME280;6800;50.940;6.940;2023-04-09T03:34:29;101683.66;;;17.49;41.78
13456;BME280;6800;50.940;6.940;2023-04-09T03:38:31;101680.59;;;17.43;41.82
13456;BME280;6800;50.940;6.940;2023-04-09T03:42:32;101681.94;;;17.23;42.08
13456;BME280;6800;50.940;6.940;2023-04-09T03:46:35;101680.03;;;17.38;42.34
13456;BME280;6800;50.940;6.940;2023-04-09T03:50:40;101681.94;;;16.98;42.30
13456;BME280;6800;50.940;6.940;2023-04-09T03:54:41;101682.34;;;16.92;42.23
13456;BME280;6800;50.940;6.940;2023-04-09T03:58:43;101683.56;;;16.86;43.11
13456;BME280;6800;50.940;6.940;2023-04-09T04:02:45;101678.00;;;16.91;42.67
13456;BME280;6800;50.940;6.940;2023-04-09T04:06:46;101683.41;;;17.02;42.11
13456;BME280;6800;50.940;6.940;2023-04-09T04:10:48;101677.41;;;17.12;42.13
13456;BME280;6800;50.940;6.940;2023-04-09T04:14:49;101687.41;;;17.07;42.21
13456;BME280;6800;50.940;6.940;2023-04-09T04:18:50;101687.84;;;17.14;41.90
13456;BME280;6800;50.940;6.940;2023-04-09T04:22:52;101681.94;;;17.10;41.70
13456;BME280;6800;50.940;6.940;2023-04-09T04:26:53;101682.28;;;16.67;42.09
13456;BME280;6800;50.940;6.940;2023-04-09T04:30:55;101681.00;;;16.60;42.90
13456;BME280;6800;50.940;6.940;2023-04-09T04:34:56;101676.50;;;16.74;41.45
13456;BME280;6800;50.940;6.940;2023-04-09T04:38:57;101680.38;;;16.69;41.74
13456;BME280;6800;50.940;6.940;2023-04-09T04:42:59;101685.75;;;16.67;41.67
13456;BME280;6800;50.940;6.940;2023-04-09T04:47:00;101682.28;;;16.67;41.17
13456;BME280;6800;50.940;6.940;2023-04-09T04:51:01;101694.06;;;16.61;41.72
13456;BME280;6800;50.940;6.940;2023-04-09T04:55:03;101693.88;;;16.64;41.32
13456;BME280;6800;50.940;6.940;2023-04-09T04:59:04;101689.50;;;16.51;41.97
13456;BME280;6800;50.940;6.940;2023-04-09T05:03:06;101687.97;;;16.73;41.20
13456;BME280;6800;50.940;6.940;2023-04-09T05:07:07;101689.38;;;16.79;40.62
13456;BME280;6800;50.940;6.940;2023-04-09T05:11:11;101693.69;;;16.80;40.79
13456;BME280;6800;50.940;6.940;2023-04-09T05:15:13;101701.22;;;16.86;40.54
13456;BME280;6800;50.940;6.940;2023-04-09T05:19:14;101697.31;;;16.91;39.39
13456;BME280;6800;50.940;6.940;2023-04-09T05:23:15;101690.69;;;17.11;39.45
13456;BME280;6800;50.940;6.940;2023-04-09T05:27:17;101694.09;;;17.13;39.76
13456;BME280;6800;50.940;6.940;2023-04-09T05:31:19;101688.16;;;17.22;39.05
13456;BME280;6800;50.940;6.940;2023-04-09T05:35:21;101706.09;;;17.04;39.44
13456;BME280;6800;50.940;6.940;2023-04-09T05:39:22;101702.81;;;17.13;39.59
13456;BME280;6800;50.940;6.940;2023-04-09T05:43:23;101706.66;;;17.47;38.29
13456;BME280;6800;50.940;6.940;2023-04-09T05:47:25;101703.81;;;17.63;38.63
13456;BME280;6800;50.940;6.940;2023-04-09T05:51:26;101700.94;;;17.91;38.21
13456;BME280;6800;50.940;6.940;2023-04-09T05:55:30;101695.06;;;17.75;37.45
13456;BME280;6800;50.940;6.940;2023-04-09T05:59:31;101691.44;;;17.76;38.09
13456;BME280;6800;50.940;6.940;2023-04-09T06:03:32;101696.53;;;17.79;37.98
13456;BME280;6800;50.940;6.940;2023-04-09T06:07:34;101693.66;;;17.82;37.26
13456;BME280;6800;50.940;6.940;2023-04-09T06:11:35;101700.97;;;17.28;38.41
13456;BME280;6800;50.940;6.940;2023-04-09T06:15:37;101704.03;;;17.47;37.78
13456;BME280;6800;50.940;6.940;2023-04-09T06:19:39;101705.00;;;16.94;38.71
13456;BME280;6800;50.940;6.940;2023-04-09T06:23:41;101701.69;;;17.43;38.52
13456;BME280;6800;50.940;6.940;2023-04-09T06:27:43;101701.78;;;17.41;38.06
13456;BME280;6800;50.940;6.940;2023-04-09T06:31:44;101699.25;;;17.77;37.52
13456;BME280;6800;50.940;6.940;2023-04-09T06:35:47;101695.50;;;18.05;37.17
13456;BME280;6800;50.940;6.940;2023-04-09T06:39:49;101695.94;;;18.35;36.63
13456;BME280;6800;50.940;6.940;2023-04-09T06:44:01;101694.88;;;18.38;36.81
13456;BME280;6800;50.940;6.940;2023-04-09T06:48:03;101713.91;;;18.66;36.52
13456;BME280;6800;50.940;6.940;2023-04-09T06:52:04;101712.69;;;19.29;35.23
13456;BME280;6800;50.940;6.940;2023-04-09T06:56:07;101711.78;;;19.96;33.51
13456;BME280;6800;50.940;6.940;2023-04-09T07:00:09;101716.38;;;20.16;33.29
13456;BME280;6800;50.940;6.940;2023-04-09T07:04:10;101719.84;;;20.71;32.19
13456;BME280;6800;50.940;6.940;2023-04-09T07:08:12;101713.84;;;21.42;31.49
13456;BME280;6800;50.940;6.940;2023-04-09T07:12:13;101707.28;;;21.97;30.23
13456;BME280;6800;50.940;6.940;2023-04-09T07:16:16;101709.53;;;22.79;29.54
13456;BME280;6800;50.940;6.940;2023-04-09T07:20:17;101708.25;;;22.93;28.95
13456;BME280;6800;50.940;6.940;2023-04-09T07:24:19;101715.50;;;23.29;28.88
13456;BME280;6800;50.940;6.940;2023-04-09T07:28:20;101712.81;;;22.33;29.80
13456;BME280;6800;50.940;6.940;2023-04-09T07:32:22;101708.94;;;23.70;27.87
13456;BME280;6800;50.940;6.940;2023-04-09T07:36:23;101721.16;;;22.69;29.57
13456;BME280;6800;50.940;6.940;2023-04-09T07:40:26;101716.19;;;24.41;26.83
13456;BME280;6800;50.940;6.940;2023-04-09T07:44:27;101718.16;;;24.39;26.52
13456;BME280;6800;50.940;6.940;2023-04-09T07:48:29;101709.47;;;26.10;25.50
13456;BME280;6800;50.940;6.940;2023-04-09T07:52:30;101715.94;;;25.23;25.66
13456;BME280;6800;50.940;6.940;2023-04-09T07:56:32;101721.94;;;24.64;25.82
13456;BME280;6800;50.940;6.940;2023-04-09T08:00:33;101712.81;;;26.12;24.64
13456;BME280;6800;50.940;6.940;2023-04-09T08:04:34;101703.84;;;26.62;23.83
13456;BME280;6800;50.940;6.940;2023-04-09T08:08:36;101714.41;;;26.05;25.02
13456;BME280;6800;50.940;6.940;2023-04-09T08:12:38;101711.13;;;27.10;23.06
13456;BME280;6800;50.940;6.940;2023-04-09T08:16:41;101700.94;;;28.15;22.37
13456;BME280;6800;50.940;6.940;2023-04-09T08:20:43;101698.91;;;28.93;20.91
13456;BME280;6800;50.940;6.940;2023-04-09T08:24:51;101704.75;;;28.82;21.58
13456;BME280;6800;50.940;6.940;2023-04-09T08:28:53;101704.69;;;28.67;20.93
13456;BME280;6800;50.940;6.940;2023-04-09T08:32:55;101702.34;;;28.87;21.21
13456;BME280;6800;50.940;6.940;2023-04-09T08:36:56;101699.50;;;27.49;22.29
13456;BME280;6800;50.940;6.940;2023-04-09T08:40:57;101710.44;;;26.09;23.19
13456;BME280;6800;50.940;6.940;2023-04-09T08:45:02;101700.38;;;27.97;21.73
13456;BME280;6800;50.940;6.940;2023-04-09T08:49:04;101707.75;;;28.56;22.09
13456;BME280;6800;50.940;6.940;2023-04-09T08:53:07;101707.84;;;29.08;21.22
13456;BME280;6800;50.940;6.940;2023-04-09T08:57:10;101713.75;;;27.58;21.75
13456;BME280;6800;50.940;6.940;2023-04-09T09:01:25;101703.34;;;28.63;20.63
13456;BME280;6800;50.940;6.940;2023-04-09T09:09:58;101689.28;;;29.36;20.51
13456;BME280;6800;50.940;6.940;2023-04-09T09:14:05;101680.34;;;31.69;18.24
13456;BME280;6800;50.940;6.940;2023-04-09T09:18:07;101687.34;;;32.65;15.60
13456;BME280;6800;50.940;6.940;2023-04-09T09:22:08;101687.88;;;29.25;18.37
13456;BME280;6800;50.940;6.940;2023-04-09T09:26:20;101685.91;;;30.21;17.91
13456;BME280;6800;50.940;6.940;2023-04-09T09:30:23;101673.09;;;30.44;18.04
13456;BME280;6800;50.940;6.940;2023-04-09T09:34:25;101673.09;;;30.44;18.09
13456;BME280;6800;50.940;6.940;2023-04-09T09:38:27;101690.13;;;29.36;18.58
13456;BME280;6800;50.940;6.940;2023-04-09T09:42:28;101675.66;;;29.66;18.62
13456;BME280;6800;50.940;6.940;2023-04-09T09:46:34;101673.53;;;29.76;17.85
13456;BME280;6800;50.940;6.940;2023-04-09T09:50:37;101667.53;;;32.38;16.32
13456;BME280;6800;50.940;6.940;2023-04-09T09:54:40;101667.03;;;30.21;17.42
13456;BME280;6800;50.940;6.940;2023-04-09T09:58:52;101663.09;;;27.55;20.08
13456;BME280;6800;50.940;6.940;2023-04-09T10:03:05;101657.03;;;29.13;18.76
13456;BME280;6800;50.940;6.940;2023-04-09T10:07:08;101662.00;;;30.96;17.84
13456;BME280;6800;50.940;6.940;2023-04-09T10:11:10;101661.22;;;29.01;18.34
13456;BME280;6800;50.940;6.940;2023-04-09T10:15:12;101657.84;;;29.21;19.29
13456;BME280;6800;50.940;6.940;2023-04-09T10:19:14;101648.53;;;29.09;19.19
13456;BME280;6800;50.940;6.940;2023-04-09T10:23:30;101646.94;;;30.38;18.18
13456;BME280;6800;50.940;6.940;2023-04-09T10:27:32;101646.84;;;31.57;17.21
13456;BME280;6800;50.940;6.940;2023-04-09T10:31:53;101636.91;;;31.71;17.57
13456;BME280;6800;50.940;6.940;2023-04-09T10:36:01;101647.56;;;30.40;18.26
13456;BME280;6800;50.940;6.940;2023-04-09T10:40:03;101640.00;;;29.79;18.59
13456;BME280;6800;50.940;6.940;2023-04-09T10:44:05;101646.41;;;29.49;18.11
13456;BME280;6800;50.940;6.940;2023-04-09T10:48:11;101652.16;;;28.79;19.34
13456;BME280;6800;50.940;6.940;2023-04-09T10:52:14;101627.31;;;30.30;18.31
13456;BME280;6800;50.940;6.940;2023-04-09T10:56:16;101633.88;;;30.42;18.38
13456;BME280;6800;50.940;6.940;2023-04-09T11:00:17;101635.38;;;30.44;18.38
13456;BME280;6800;50.940;6.940;2023-04-09T11:04:20;101631.66;;;30.66;18.09
13456;BME280;6800;50.940;6.940;2023-04-09T11:08:22;101623.56;;;28.41;19.13
13456;BME280;6800;50.940;6.940;2023-04-09T11:12:24;101611.72;;;30.04;18.58
13456;BME280;6800;50.940;6.940;2023-04-09T11:16:27;101607.69;;;29.79;19.52
13456;BME280;6800;50.940;6.940;2023-04-09T11:20:29;101616.63;;;29.21;19.66
13456;BME280;6800;50.940;6.940;2023-04-09T11:24:44;101602.84;;;28.87;19.00
13456;BME280;6800;50.940;6.940;2023-04-09T11:28:54;101608.94;;;26.48;21.22
13456;BME280;6800;50.940;6.940;2023-04-09T11:32:56;101610.78;;;26.80;21.29
13456;BME280;6800;50.940;6.940;2023-04-09T11:36:58;101603.44;;;29.11;19.36
13456;BME280;6800;50.940;6.940;2023-04-09T11:41:02;101594.50;;;27.60;21.18
13456;BME280;6800;50.940;6.940;2023-04-09T11:45:04;101589.09;;;27.99;20.18
13456;BME280;6800;50.940;6.940;2023-04-09T11:49:05;101590.72;;;29.05;19.38
13456;BME280;6800;50.940;6.940;2023-04-09T11:53:21;101594.75;;;27.73;20.81
13456;BME280;6800;50.940;6.940;2023-04-09T11:57:22;101593.97;;;27.18;21.35
13456;BME280;6800;50.940;6.940;2023-04-09T12:01:24;101586.22;;;27.31;21.44
13456;BME280;6800;50.940;6.940;2023-04-09T12:05:30;101604.38;;;26.16;22.07
13456;BME280;6800;50.940;6.940;2023-04-09T12:09:32;101593.81;;;26.15;22.39
13456;BME280;6800;50.940;6.940;2023-04-09T12:13:33;101598.38;;;26.22;21.75
13456;BME280;6800;50.940;6.940;2023-04-09T12:17:35;101595.72;;;26.47;22.29
13456;BME280;6800;50.940;6.940;2023-04-09T12:21:51;101602.81;;;25.48;22.79
13456;BME280;6800;50.940;6.940;2023-04-09T12:26:01;101602.75;;;25.74;22.98
13456;BME280;6800;50.940;6.940;2023-04-09T12:30:04;101589.38;;;24.81;23.70
13456;BME280;6800;50.940;6.940;2023-04-09T12:34:05;101583.81;;;25.67;23.29
13456;BME280;6800;50.940;6.940;2023-04-09T12:38:07;101597.69;;;23.89;24.60
13456;BME280;6800;50.940;6.940;2023-04-09T12:42:08;101593.16;;;24.17;24.03
13456;BME280;6800;50.940;6.940;2023-04-09T12:46:10;101592.84;;;24.55;24.02
13456;BME280;6800;50.940;6.940;2023-04-09T12:50:12;101597.38;;;25.32;22.51
13456;BME280;6800;50.940;6.940;2023-04-09T12:54:13;101585.91;;;25.97;22.22
13456;BME280;6800;50.940;6.940;2023-04-09T12:58:15;101578.53;;;25.41;22.65
13456;BME280;6800;50.940;6.940;2023-04-09T13:02:18;101578.56;;;26.07;22.52
13456;BME280;6800;50.940;6.940;2023-04-09T13:06:19;101575.59;;;26.43;22.71
13456;BME280;6800;50.940;6.940;2023-04-09T13:10:22;101567.59;;;26.51;22.48
13456;BME280;6800;50.940;6.940;2023-04-09T13:14:24;101568.56;;;25.51;22.98
13456;BME280;6800;50.940;6.940;2023-04-09T13:18:26;101566.56;;;26.11;22.53
13456;BME280;6800;50.940;6.940;2023-04-09T13:22:27;101560.56;;;26.34;21.95
13456;BME280;6800;50.940;6.940;2023-04-09T13:26:29;101563.22;;;24.92;23.40
13456;BME280;6800;50.940;6.940;2023-04-09T13:30:31;101577.66;;;24.38;23.69
13456;BME280;6800;50.940;6.940;2023-04-09T13:34:33;101579.25;;;24.14;24.01
13456;BME280;6800;50.940;6.940;2023-04-09T13:38:35;101568.41;;;25.19;22.81
13456;BME280;6800;50.940;6.940;2023-04-09T13:42:36;101552.22;;;25.29;23.41
13456;BME280;6800;50.940;6.940;2023-04-09T13:46:38;101559.81;;;24.82;23.35
13456;BME280;6800;50.940;6.940;2023-04-09T13:50:40;101552.78;;;24.55;23.43
13456;BME280;6800;50.940;6.940;2023-04-09T13:54:41;101550.44;;;25.04;22.97
13456;BME280;6800;50.940;6.940;2023-04-09T13:58:43;101550.56;;;25.28;23.04
13456;BME280;6800;50.940;6.940;2023-04-09T14:02:44;101556.34;;;24.64;23.44
13456;BME280;6800;50.940;6.940;2023-04-09T14:06:46;101542.41;;;25.37;23.01
13456;BME280;6800;50.940;6.940;2023-04-09T14:10:48;101536.84;;;24.71;23.59
13456;BME280;6800;50.940;6.940;2023-04-09T14:14:49;101537.56;;;25.91;22.67
13456;BME280;6800;50.940;6.940;2023-04-09T14:18:51;101524.34;;;25.39;23.36
13456;BME280;6800;50.940;6.940;2023-04-09T14:22:53;101526.44;;;24.60;24.00
13456;BME280;6800;50.940;6.940;2023-04-09T14:26:55;101518.31;;;24.88;23.67
13456;BME280;6800;50.940;6.940;2023-04-09T14:30:57;101527.13;;;24.19;24.61
13456;BME280;6800;50.940;6.940;2023-04-09T14:34:59;101516.44;;;24.19;24.33
13456;BME280;6800;50.940;6.940;2023-04-09T14:39:01;101512.59;;;24.39;24.00
13456;BME280;6800;50.940;6.940;2023-04-09T14:43:02;101504.59;;;24.65;23.54
13456;BME280;6800;50.940;6.940;2023-04-09T14:47:03;101509.03;;;23.78;24.66
13456;BME280;6800;50.940;6.940;2023-04-09T14:51:05;101510.72;;;24.32;24.25
13456;BME280;6800;50.940;6.940;2023-04-09T14:55:07;101503.28;;;24.95;24.02
13456;BME280;6800;50.940;6.940;2023-04-09T14:59:12;101499.59;;;24.62;24.21
13456;BME280;6800;50.940;6.940;2023-04-09T15:03:14;101500.13;;;24.99;24.10
13456;BME280;6800;50.940;6.940;2023-04-09T15:07:15;101507.09;;;24.66;23.10
13456;BME280;6800;50.940;6.940;2023-04-09T15:11:19;101493.44;;;24.69;23.77
13456;BME280;6800;50.940;6.940;2023-04-09T15:15:20;101488.31;;;25.10;23.33
13456;BME280;6800;50.940;6.940;2023-04-09T15:19:22;101494.91;;;24.38;23.81
13456;BME280;6800;50.940;6.940;2023-04-09T15:23:23;101496.50;;;24.49;23.92
13456;BME280;6800;50.940;6.940;2023-04-09T15:27:24;101489.63;;;24.46;23.59
13456;BME280;6800;50.940;6.940;2023-04-09T15:31:26;101517.13;;;24.21;24.28
13456;BME280;6800;50.940;6.940;2023-04-09T15:35:28;101501.00;;;24.74;23.91
13456;BME280;6800;50.940;6.940;2023-04-09T15:39:29;101507.06;;;23.62;24.42
13456;BME280;6800;50.940;6.940;2023-04-09T15:43:32;101502.91;;;23.23;25.58
13456;BME280;6800;50.940;6.940;2023-04-09T15:47:33;101503.63;;;24.23;24.06
13456;BME280;6800;50.940;6.940;2023-04-09T15:51:35;101498.63;;;24.45;24.07
13456;BME280;6800;50.940;6.940;2023-04-09T15:55:36;101483.03;;;24.58;23.88
13456;BME280;6800;50.940;6.940;2023-04-09T15:59:38;101488.44;;;23.88;24.21
13456;BME280;6800;50.940;6.940;2023-04-09T16:03:39;101495.06;;;23.49;24.65
13456;BME280;6800;50.940;6.940;2023-04-09T16:07:41;101483.31;;;24.04;23.60
13456;BME280;6800;50.940;6.940;2023-04-09T16:11:43;101490.66;;;24.28;24.05
13456;BME280;6800;50.940;6.940;2023-04-09T16:15:44;101498.06;;;24.16;23.99
13456;BME280;6800;50.940;6.940;2023-04-09T16:19:46;101486.72;;;24.14;23.93
13456;BME280;6800;50.940;6.940;2023-04-09T16:23:48;101496.69;;;23.94;23.91
13456;BME280;6800;50.940;6.940;2023-04-09T16:27:49;101483.50;;;23.75;24.32
13456;BME280;6800;50.940;6.940;2023-04-09T16:31:51;101486.09;;;24.20;24.46
13456;BME280;6800;50.940;6.940;2023-04-09T16:35:53;101483.44;;;23.50;24.46
13456;BME280;6800;50.940;6.940;2023-04-09T16:39:54;101471.59;;;23.52;24.83
13456;BME280;6800;50.940;6.940;2023-04-09T16:43:57;101472.94;;;23.83;24.32
13456;BME280;6800;50.940;6.940;2023-04-09T16:47:58;101475.13;;;24.06;24.51
13456;BME280;6800;50.940;6.940;2023-04-09T16:52:00;101457.44;;;23.87;24.38
13456;BME280;6800;50.940;6.940;2023-04-09T16:56:01;101455.69;;;23.78;23.75
13456;BME280;6800;50.940;6.940;2023-04-09T17:00:04;101452.19;;;23.60;24.30
13456;BME280;6800;50.940;6.940;2023-04-09T17:04:06;101445.09;;;23.86;23.89
13456;BME280;6800;50.940;6.940;2023-04-09T17:08:08;101435.81;;;22.83;25.00
13456;BME280;6800;50.940;6.940;2023-04-09T17:12:09;101436.44;;;23.66;24.51
13456;BME280;6800;50.940;6.940;2023-04-09T17:16:12;101439.13;;;22.94;25.11
13456;BME280;6800;50.940;6.940;2023-04-09T17:20:14;101435.97;;;23.71;24.79
13456;BME280;6800;50.940;6.940;2023-04-09T17:24:16;101462.16;;;22.86;25.44
13456;BME280;6800;50.940;6.940;2023-04-09T17:28:17;101456.28;;;23.37;25.11
13456;BME280;6800;50.940;6.940;2023-04-09T17:32:19;101455.56;;;23.07;25.29
13456;BME280;6800;50.940;6.940;2023-04-09T17:36:20;101464.25;;;22.26;26.23
13456;BME280;6800;50.940;6.940;2023-04-09T17:40:23;101462.16;;;23.40;25.19
13456;BME280;6800;50.940;6.940;2023-04-09T17:44:24;101475.91;;;23.08;25.37
13456;BME280;6800;50.940;6.940;2023-04-09T17:48:26;101477.47;;;22.74;25.46
13456;BME280;6800;50.940;6.940;2023-04-09T17:52:30;101469.78;;;23.25;25.08
13456;BME280;6800;50.940;6.940;2023-04-09T17:56:36;101466.09;;;22.82;25.92
13456;BME280;6800;50.940;6.940;2023-04-09T18:00:41;101462.50;;;22.64;25.95
13456;BME280;6800;50.940;6.940;2023-04-09T18:04:43;101457.19;;;22.64;25.76
13456;BME280;6800;50.940;6.940;2023-04-09T18:08:45;101463.34;;;22.54;25.99
13456;BME280;6800;50.940;6.940;2023-04-09T18:12:46;101465.34;;;22.43;26.04
13456;BME280;6800;50.940;6.940;2023-04-09T18:16:48;101461.38;;;22.57;25.90
13456;BME280;6800;50.940;6.940;2023-04-09T18:20:49;101465.44;;;22.70;25.65
13456;BME280;6800;50.940;6.940;2023-04-09T18:24:52;101464.03;;;22.57;25.84
13456;BME280;6800;50.940;6.940;2023-04-09T18:28:54;101471.81;;;22.31;26.66
13456;BME280;6800;50.940;6.940;2023-04-09T18:32:59;101465.03;;;22.56;26.42
13456;BME280;6800;50.940;6.940;2023-04-09T18:37:00;101476.44;;;22.19;26.82
13456;BME280;6800;50.940;6.940;2023-04-09T18:41:02;101470.84;;;22.22;26.60
13456;BME280;6800;50.940;6.940;2023-04-09T18:45:03;101470.72;;;22.05;26.88
13456;BME280;6800;50.940;6.940;2023-04-09T18:49:05;101474.66;;;21.91;26.92
13456;BME280;6800;50.940;6.940;2023-04-09T18:53:07;101475.75;;;22.17;26.67
13456;BME280;6800;50.940;6.940;2023-04-09T18:57:08;101486.81;;;21.94;26.93
13456;BME280;6800;50.940;6.940;2023-04-09T19:01:10;101482.47;;;21.73;27.28
13456;BME280;6800;50.940;6.940;2023-04-09T19:05:12;101484.44;;;22.10;26.78
13456;BME280;6800;50.940;6.940;2023-04-09T19:09:14;101483.06;;;21.96;26.81
13456;BME280;6800;50.940;6.940;2023-04-09T19:13:15;101487.91;;;21.72;27.38
13456;BME280;6800;50.940;6.940;2023-04-09T19:17:17;101495.22;;;21.99;26.80
13456;BME280;6800;50.940;6.940;2023-04-09T19:21:18;101478.25;;;21.71;27.22
13456;BME280;6800;50.940;6.940;2023-04-09T19:25:20;101487.91;;;21.82;27.02
13456;BME280;6800;50.940;6.940;2023-04-09T19:29:23;101495.63;;;21.85;26.96
13456;BME280;6800;50.940;6.940;2023-04-09T19:33:25;101483.69;;;21.60;27.31
13456;BME280;6800;50.940;6.940;2023-04-09T19:37:27;101489.31;;;21.66;27.48
13456;BME280;6800;50.940;6.940;2023-04-09T19:41:30;101494.47;;;21.58;27.23
13456;BME280;6800;50.940;6.940;2023-04-09T19:49:33;101497.28;;;21.17;28.10
13456;BME280;6800;50.940;6.940;2023-04-09T19:53:35;101507.56;;;21.41;27.55
13456;BME280;6800;50.940;6.940;2023-04-09T19:57:37;101488.78;;;21.23;27.88
13456;BME280;6800;50.940;6.940;2023-04-09T20:01:40;101493.03;;;21.35;27.81
13456;BME280;6800;50.940;6.940;2023-04-09T20:05:42;101496.25;;;21.39;27.77
13456;BME280;6800;50.940;6.940;2023-04-09T20:09:43;101504.31;;;21.18;28.08
13456;BME280;6800;50.940;6.940;2023-04-09T20:13:46;101500.25;;;21.14;28.16
13456;BME280;6800;50.940;6.940;2023-04-09T20:17:48;101495.88;;;21.13;28.36
13456;BME280;6800;50.940;6.940;2023-04-09T20:21:50;101492.78;;;21.08;28.19
13456;BME280;6800;50.940;6.940;2023-04-09T20:25:53;101493.38;;;20.91;28.72
13456;BME280;6800;50.940;6.940;2023-04-09T20:29:55;101493.97;;;20.94;28.60
13456;BME280;6800;50.940;6.940;2023-04-09T20:33:56;101490.38;;;20.75;29.00
13456;BME280;6800;50.940;6.940;2023-04-09T20:37:58;101492.25;;;20.84;28.56
13456;BME280;6800;50.940;6.940;2023-04-09T20:41:59;101486.94;;;20.84;28.75
13456;BME280;6800;50.940;6.940;2023-04-09T20:46:00;101489.44;;;20.76;28.68
13456;BME280;6800;50.940;6.940;2023-04-09T20:50:02;101487.63;;;20.56;29.05
13456;BME280;6800;50.940;6.940;2023-04-09T20:54:04;101486.00;;;20.64;29.26
13456;BME280;6800;50.940;6.940;2023-04-09T20:58:05;101479.97;;;20.53;29.10
13456;BME280;6800;50.940;6.940;2023-04-09T21:02:07;101478.81;;;20.55;29.32
13456;BME280;6800;50.940;6.940;2023-04-09T21:06:09;101480.28;;;20.39;29.87
13456;BME280;6800;50.940;6.940;2023-04-09T21:10:11;101477.69;;;20.48;29.44
13456;BME280;6800;50.940;6.940;2023-04-09T21:14:13;101472.56;;;20.56;30.10
13456;BME280;6800;50.940;6.940;2023-04-09T21:18:15;101471.59;;;20.37;30.05
13456;BME280;6800;50.940;6.940;2023-04-09T21:22:17;101467.94;;;20.17;29.83
13456;BME280;6800;50.940;6.940;2023-04-09T21:26:18;101468.59;;;20.20;29.96
13456;BME280;6800;50.940;6.940;2023-04-09T21:30:20;101469.41;;;20.21;29.90
13456;BME280;6800;50.940;6.940;2023-04-09T21:34:21;101483.50;;;20.21;29.86
13456;BME280;6800;50.940;6.940;2023-04-09T21:38:22;101481.72;;;20.11;30.14
13456;BME280;6800;50.940;6.940;2023-04-09T21:42:24;101479.72;;;20.03;30.31